Pagrindinis puslapis
METAR-TAF:

METAR-TAF

Oro uostai :

Marilija, San Paulas, Brazilija

platuma: 22-11-44S, ilguma: 049-55-37W, Aukštis: 647 m

Dabartinis oras

Ataskaita buvo paskelbta 1 valandą ir 18 minutes, ne 19:00 UTC
Vėjas 10 kt iš Šiaurės/Šiaurės Rytų
Temperatūra 30°C
Drėgmė 66%
Slėgis 1011 hPa
Matomumas 10 km arba daugiau
Su prošvaistėmis ne aukštis 4000 ft

METAR: SBML 171900Z 02010KT 9999 BKN040 30/23 Q1011

Laikas: 17:18 (20:18 UTC)


TAF: trūkstamas

Orai ataskaitas ir orų prognozės (METAR, TAF).

turimą stotys yra geltonos ir raudonos taškus žemėlapyje.

Perkelti pele per norėdami pamatyti stoties vardą.

Tada spustelėkite, norėdami matyti oro stebėjimo ir prognozės.

Norėdami pakeisti žemėlapį: spustelėkite ant žalios mygtukų su juodo kryžiaus žemyn,; žalią mygtuką su brūkšneliu, jei norite nutolinti; arba žalių rodyklių gretimoms žemėlapius.


METAR-TAF: